sensor_id;sensor_type;location;lat;lon;timestamp;temperature;humidity
52107;DHT22;38105;52.968;5.974;2023-09-30T00:02:13;12.00;99.90
52107;DHT22;38105;52.968;5.974;2023-09-30T00:04:39;12.00;99.90
52107;DHT22;38105;52.968;5.974;2023-09-30T00:07:05;12.00;99.90
52107;DHT22;38105;52.968;5.974;2023-09-30T00:09:30;12.00;99.90
52107;DHT22;38105;52.968;5.974;2023-09-30T00:11:56;12.00;99.90
52107;DHT22;38105;52.968;5.974;2023-09-30T00:14:22;12.00;99.90
52107;DHT22;38105;52.968;5.974;2023-09-30T00:16:48;12.10;99.90
52107;DHT22;38105;52.968;5.974;2023-09-30T00:19:13;12.00;99.90
52107;DHT22;38105;52.968;5.974;2023-09-30T00:21:39;12.20;99.90
52107;DHT22;38105;52.968;5.974;2023-09-30T00:24:05;12.20;99.90
52107;DHT22;38105;52.968;5.974;2023-09-30T00:26:30;12.10;99.90
52107;DHT22;38105;52.968;5.974;2023-09-30T00:28:56;12.20;99.90
52107;DHT22;38105;52.968;5.974;2023-09-30T00:31:22;12.20;99.90
52107;DHT22;38105;52.968;5.974;2023-09-30T00:33:47;12.20;99.90
52107;DHT22;38105;52.968;5.974;2023-09-30T00:36:13;12.20;99.90
52107;DHT22;38105;52.968;5.974;2023-09-30T00:38:39;12.20;99.90
52107;DHT22;38105;52.968;5.974;2023-09-30T00:41:05;12.40;99.90
52107;DHT22;38105;52.968;5.974;2023-09-30T00:43:32;12.20;99.90
52107;DHT22;38105;52.968;5.974;2023-09-30T00:46:02;12.40;99.90
52107;DHT22;38105;52.968;5.974;2023-09-30T00:48:31;12.30;99.90
52107;DHT22;38105;52.968;5.974;2023-09-30T00:50:57;12.20;99.90
52107;DHT22;38105;52.968;5.974;2023-09-30T00:53:23;12.40;99.90
52107;DHT22;38105;52.968;5.974;2023-09-30T00:55:48;12.40;99.90
52107;DHT22;38105;52.968;5.974;2023-09-30T00:58:14;12.20;99.90
52107;DHT22;38105;52.968;5.974;2023-09-30T01:00:40;12.40;99.90
52107;DHT22;38105;52.968;5.974;2023-09-30T01:03:05;12.40;99.90
52107;DHT22;38105;52.968;5.974;2023-09-30T01:05:31;12.30;99.90
52107;DHT22;38105;52.968;5.974;2023-09-30T01:07:57;12.30;99.90
52107;DHT22;38105;52.968;5.974;2023-09-30T01:10:23;12.30;99.90
52107;DHT22;38105;52.968;5.974;2023-09-30T01:12:48;12.20;99.90
52107;DHT22;38105;52.968;5.974;2023-09-30T01:15:14;12.30;99.90
52107;DHT22;38105;52.968;5.974;2023-09-30T01:17:39;12.20;99.90
52107;DHT22;38105;52.968;5.974;2023-09-30T01:20:05;12.20;99.90
52107;DHT22;38105;52.968;5.974;2023-09-30T01:22:32;12.10;99.90
52107;DHT22;38105;52.968;5.974;2023-09-30T01:24:58;12.10;99.90
52107;DHT22;38105;52.968;5.974;2023-09-30T01:27:26;12.10;99.90
52107;DHT22;38105;52.968;5.974;2023-09-30T01:29:52;12.10;99.90
52107;DHT22;38105;52.968;5.974;2023-09-30T01:32:17;12.20;99.90
52107;DHT22;38105;52.968;5.974;2023-09-30T01:34:43;12.20;99.90
52107;DHT22;38105;52.968;5.974;2023-09-30T01:37:09;12.00;99.90
52107;DHT22;38105;52.968;5.974;2023-09-30T01:39:35;12.10;99.90
52107;DHT22;38105;52.968;5.974;2023-09-30T01:42:00;12.10;99.90
52107;DHT22;38105;52.968;5.974;2023-09-30T01:44:26;12.10;99.90
52107;DHT22;38105;52.968;5.974;2023-09-30T01:46:52;12.10;99.90
52107;DHT22;38105;52.968;5.974;2023-09-30T01:49:17;12.00;99.90
52107;DHT22;38105;52.968;5.974;2023-09-30T01:51:43;12.00;99.90
52107;DHT22;38105;52.968;5.974;2023-09-30T01:54:09;11.90;99.90
52107;DHT22;38105;52.968;5.974;2023-09-30T01:56:36;12.00;99.90
52107;DHT22;38105;52.968;5.974;2023-09-30T01:59:01;11.90;99.90
52107;DHT22;38105;52.968;5.974;2023-09-30T02:01:27;12.00;99.90
52107;DHT22;38105;52.968;5.974;2023-09-30T02:03:53;12.00;99.90
52107;DHT22;38105;52.968;5.974;2023-09-30T02:06:18;11.90;99.90
52107;DHT22;38105;52.968;5.974;2023-09-30T02:08:47;12.10;99.90
52107;DHT22;38105;52.968;5.974;2023-09-30T02:11:12;11.90;99.90
52107;DHT22;38105;52.968;5.974;2023-09-30T02:13:39;12.10;99.90
52107;DHT22;38105;52.968;5.974;2023-09-30T02:16:05;11.90;99.90
52107;DHT22;38105;52.968;5.974;2023-09-30T02:18:36;11.90;99.90
52107;DHT22;38105;52.968;5.974;2023-09-30T02:21:02;12.10;99.90
52107;DHT22;38105;52.968;5.974;2023-09-30T02:23:29;12.10;99.90
52107;DHT22;38105;52.968;5.974;2023-09-30T02:25:55;12.00;99.90
52107;DHT22;38105;52.968;5.974;2023-09-30T02:28:20;12.20;99.90
52107;DHT22;38105;52.968;5.974;2023-09-30T02:30:49;12.20;99.90
52107;DHT22;38105;52.968;5.974;2023-09-30T02:33:14;12.20;99.90
52107;DHT22;38105;52.968;5.974;2023-09-30T02:35:44;12.10;99.90
52107;DHT22;38105;52.968;5.974;2023-09-30T02:38:11;12.00;99.90
52107;DHT22;38105;52.968;5.974;2023-09-30T02:40:36;12.10;99.90
52107;DHT22;38105;52.968;5.974;2023-09-30T02:43:03;12.10;99.90
52107;DHT22;38105;52.968;5.974;2023-09-30T02:45:29;12.30;99.90
52107;DHT22;38105;52.968;5.974;2023-09-30T02:47:55;12.40;99.90
52107;DHT22;38105;52.968;5.974;2023-09-30T02:50:20;12.20;99.90
52107;DHT22;38105;52.968;5.974;2023-09-30T02:52:46;12.40;99.90
52107;DHT22;38105;52.968;5.974;2023-09-30T02:55:12;12.50;99.90
52107;DHT22;38105;52.968;5.974;2023-09-30T02:57:38;12.40;99.90
52107;DHT22;38105;52.968;5.974;2023-09-30T03:00:04;12.30;99.90
52107;DHT22;38105;52.968;5.974;2023-09-30T03:02:40;12.50;99.90
52107;DHT22;38105;52.968;5.974;2023-09-30T03:05:06;12.30;99.90
52107;DHT22;38105;52.968;5.974;2023-09-30T03:07:33;12.40;99.90
52107;DHT22;38105;52.968;5.974;2023-09-30T03:09:58;12.50;99.90
52107;DHT22;38105;52.968;5.974;2023-09-30T03:12:25;12.40;99.90
52107;DHT22;38105;52.968;5.974;2023-09-30T03:14:51;12.40;99.90
52107;DHT22;38105;52.968;5.974;2023-09-30T03:17:16;12.20;99.90
52107;DHT22;38105;52.968;5.974;2023-09-30T03:19:43;12.30;99.90
52107;DHT22;38105;52.968;5.974;2023-09-30T03:22:09;12.30;99.90
52107;DHT22;38105;52.968;5.974;2023-09-30T03:24:38;12.30;99.90
52107;DHT22;38105;52.968;5.974;2023-09-30T03:27:03;12.20;99.90
52107;DHT22;38105;52.968;5.974;2023-09-30T03:29:29;12.30;99.90
52107;DHT22;38105;52.968;5.974;2023-09-30T03:31:55;12.10;99.90
52107;DHT22;38105;52.968;5.974;2023-09-30T03:34:20;12.40;99.90
52107;DHT22;38105;52.968;5.974;2023-09-30T03:36:46;12.10;99.90
52107;DHT22;38105;52.968;5.974;2023-09-30T03:39:11;12.30;99.90
52107;DHT22;38105;52.968;5.974;2023-09-30T03:41:40;12.30;99.90
52107;DHT22;38105;52.968;5.974;2023-09-30T03:44:05;12.10;99.90
52107;DHT22;38105;52.968;5.974;2023-09-30T03:46:31;12.10;99.90
52107;DHT22;38105;52.968;5.974;2023-09-30T03:48:57;12.20;99.90
52107;DHT22;38105;52.968;5.974;2023-09-30T03:51:22;12.10;99.90
52107;DHT22;38105;52.968;5.974;2023-09-30T03:53:50;12.50;99.90
52107;DHT22;38105;52.968;5.974;2023-09-30T03:56:16;12.30;99.90
52107;DHT22;38105;52.968;5.974;2023-09-30T03:58:43;12.40;99.90
52107;DHT22;38105;52.968;5.974;2023-09-30T04:01:10;12.50;99.90
52107;DHT22;38105;52.968;5.974;2023-09-30T04:03:49;12.20;99.90
52107;DHT22;38105;52.968;5.974;2023-09-30T04:06:14;12.40;99.90
52107;DHT22;38105;52.968;5.974;2023-09-30T04:08:40;12.20;99.90
52107;DHT22;38105;52.968;5.974;2023-09-30T04:11:05;12.50;99.90
52107;DHT22;38105;52.968;5.974;2023-09-30T04:13:35;12.30;99.90
52107;DHT22;38105;52.968;5.974;2023-09-30T04:16:02;12.10;99.90
52107;DHT22;38105;52.968;5.974;2023-09-30T04:18:28;12.30;99.90
52107;DHT22;38105;52.968;5.974;2023-09-30T04:20:54;12.10;99.90
52107;DHT22;38105;52.968;5.974;2023-09-30T04:23:19;12.40;99.90
52107;DHT22;38105;52.968;5.974;2023-09-30T04:25:46;12.30;99.90
52107;DHT22;38105;52.968;5.974;2023-09-30T04:28:12;12.10;99.90
52107;DHT22;38105;52.968;5.974;2023-09-30T04:30:38;12.20;99.90
52107;DHT22;38105;52.968;5.974;2023-09-30T04:33:04;12.20;99.90
52107;DHT22;38105;52.968;5.974;2023-09-30T04:35:33;12.20;99.90
52107;DHT22;38105;52.968;5.974;2023-09-30T04:38:00;12.00;99.90
52107;DHT22;38105;52.968;5.974;2023-09-30T04:40:27;12.00;99.90
52107;DHT22;38105;52.968;5.974;2023-09-30T04:42:52;12.00;99.90
52107;DHT22;38105;52.968;5.974;2023-09-30T04:45:26;12.00;99.90
52107;DHT22;38105;52.968;5.974;2023-09-30T04:47:52;12.00;99.90
52107;DHT22;38105;52.968;5.974;2023-09-30T04:50:18;11.70;99.90
52107;DHT22;38105;52.968;5.974;2023-09-30T04:52:47;11.80;99.90
52107;DHT22;38105;52.968;5.974;2023-09-30T04:55:13;11.90;99.90
52107;DHT22;38105;52.968;5.974;2023-09-30T04:57:41;11.80;99.90
52107;DHT22;38105;52.968;5.974;2023-09-30T05:00:16;11.50;99.90
52107;DHT22;38105;52.968;5.974;2023-09-30T05:02:45;11.80;99.90
52107;DHT22;38105;52.968;5.974;2023-09-30T05:05:11;11.50;99.90
52107;DHT22;38105;52.968;5.974;2023-09-30T05:07:37;11.50;99.90
52107;DHT22;38105;52.968;5.974;2023-09-30T05:10:03;11.60;99.90
52107;DHT22;38105;52.968;5.974;2023-09-30T05:12:36;11.70;99.90
52107;DHT22;38105;52.968;5.974;2023-09-30T05:15:01;11.50;99.90
52107;DHT22;38105;52.968;5.974;2023-09-30T05:17:27;11.40;99.90
52107;DHT22;38105;52.968;5.974;2023-09-30T05:19:53;11.50;99.90
52107;DHT22;38105;52.968;5.974;2023-09-30T05:22:19;11.60;99.90
52107;DHT22;38105;52.968;5.974;2023-09-30T05:24:50;11.30;99.90
52107;DHT22;38105;52.968;5.974;2023-09-30T05:27:15;11.50;99.90
52107;DHT22;38105;52.968;5.974;2023-09-30T05:29:42;11.30;99.90
52107;DHT22;38105;52.968;5.974;2023-09-30T05:32:08;11.30;99.90
52107;DHT22;38105;52.968;5.974;2023-09-30T05:34:37;11.50;99.90
52107;DHT22;38105;52.968;5.974;2023-09-30T05:37:04;11.20;99.90
52107;DHT22;38105;52.968;5.974;2023-09-30T05:39:30;11.40;99.90
52107;DHT22;38105;52.968;5.974;2023-09-30T05:41:57;11.20;99.90
52107;DHT22;38105;52.968;5.974;2023-09-30T05:44:23;11.20;99.90
52107;DHT22;38105;52.968;5.974;2023-09-30T05:46:48;11.20;99.90
52107;DHT22;38105;52.968;5.974;2023-09-30T05:49:15;11.40;99.90
52107;DHT22;38105;52.968;5.974;2023-09-30T05:51:41;11.20;99.90
52107;DHT22;38105;52.968;5.974;2023-09-30T05:54:07;11.40;99.90
52107;DHT22;38105;52.968;5.974;2023-09-30T05:56:36;11.30;99.90
52107;DHT22;38105;52.968;5.974;2023-09-30T05:59:02;11.40;99.90
52107;DHT22;38105;52.968;5.974;2023-09-30T06:01:28;11.20;99.90
52107;DHT22;38105;52.968;5.974;2023-09-30T06:03:54;11.60;99.90
52107;DHT22;38105;52.968;5.974;2023-09-30T06:06:23;11.50;99.90
52107;DHT22;38105;52.968;5.974;2023-09-30T06:08:51;11.40;99.90
52107;DHT22;38105;52.968;5.974;2023-09-30T06:11:17;11.50;99.90
52107;DHT22;38105;52.968;5.974;2023-09-30T06:13:43;11.70;99.90
52107;DHT22;38105;52.968;5.974;2023-09-30T06:16:08;11.70;99.90
52107;DHT22;38105;52.968;5.974;2023-09-30T06:18:36;12.00;99.90
52107;DHT22;38105;52.968;5.974;2023-09-30T06:21:02;12.40;99.90
52107;DHT22;38105;52.968;5.974;2023-09-30T06:23:29;13.00;99.90
52107;DHT22;38105;52.968;5.974;2023-09-30T06:25:56;13.50;99.90
52107;DHT22;38105;52.968;5.974;2023-09-30T06:28:24;14.10;99.90
52107;DHT22;38105;52.968;5.974;2023-09-30T06:30:51;14.70;99.90
52107;DHT22;38105;52.968;5.974;2023-09-30T06:33:17;15.30;99.90
52107;DHT22;38105;52.968;5.974;2023-09-30T06:35:43;15.90;99.90
52107;DHT22;38105;52.968;5.974;2023-09-30T06:38:16;16.40;99.90
52107;DHT22;38105;52.968;5.974;2023-09-30T06:40:43;17.00;99.90
52107;DHT22;38105;52.968;5.974;2023-09-30T06:43:08;17.50;99.90
52107;DHT22;38105;52.968;5.974;2023-09-30T06:45:34;18.00;99.90
52107;DHT22;38105;52.968;5.974;2023-09-30T06:47:59;18.30;99.90
52107;DHT22;38105;52.968;5.974;2023-09-30T06:50:25;18.90;99.90
52107;DHT22;38105;52.968;5.974;2023-09-30T06:52:51;19.10;99.90
52107;DHT22;38105;52.968;5.974;2023-09-30T06:55:16;19.60;99.90
52107;DHT22;38105;52.968;5.974;2023-09-30T06:57:42;20.00;99.90
52107;DHT22;38105;52.968;5.974;2023-09-30T07:00:14;20.40;99.90
52107;DHT22;38105;52.968;5.974;2023-09-30T07:02:39;20.90;99.90
52107;DHT22;38105;52.968;5.974;2023-09-30T07:05:09;21.30;99.90
52107;DHT22;38105;52.968;5.974;2023-09-30T07:07:35;21.80;99.90
52107;DHT22;38105;52.968;5.974;2023-09-30T07:10:00;22.10;99.90
52107;DHT22;38105;52.968;5.974;2023-09-30T07:12:26;22.40;99.90
52107;DHT22;38105;52.968;5.974;2023-09-30T07:14:53;22.50;99.90
52107;DHT22;38105;52.968;5.974;2023-09-30T07:17:18;22.80;99.90
52107;DHT22;38105;52.968;5.974;2023-09-30T07:19:44;23.00;99.90
52107;DHT22;38105;52.968;5.974;2023-09-30T07:22:09;23.10;99.90
52107;DHT22;38105;52.968;5.974;2023-09-30T07:24:35;23.40;99.90
52107;DHT22;38105;52.968;5.974;2023-09-30T07:27:03;23.70;99.90
52107;DHT22;38105;52.968;5.974;2023-09-30T07:29:31;23.60;99.90
52107;DHT22;38105;52.968;5.974;2023-09-30T07:31:56;23.80;99.90
52107;DHT22;38105;52.968;5.974;2023-09-30T07:34:22;23.70;99.90
52107;DHT22;38105;52.968;5.974;2023-09-30T07:36:47;23.70;99.90
52107;DHT22;38105;52.968;5.974;2023-09-30T07:39:13;23.80;99.90
52107;DHT22;38105;52.968;5.974;2023-09-30T07:41:39;24.00;99.90
52107;DHT22;38105;52.968;5.974;2023-09-30T07:44:07;24.30;99.90
52107;DHT22;38105;52.968;5.974;2023-09-30T07:46:34;24.60;99.90
52107;DHT22;38105;52.968;5.974;2023-09-30T07:49:01;24.30;99.90
52107;DHT22;38105;52.968;5.974;2023-09-30T07:51:28;24.70;99.90
52107;DHT22;38105;52.968;5.974;2023-09-30T07:53:55;25.10;99.90
52107;DHT22;38105;52.968;5.974;2023-09-30T07:56:21;25.20;99.90
52107;DHT22;38105;52.968;5.974;2023-09-30T07:58:47;25.60;99.90
52107;DHT22;38105;52.968;5.974;2023-09-30T08:01:14;25.90;99.90
52107;DHT22;38105;52.968;5.974;2023-09-30T08:03:40;26.00;99.90
52107;DHT22;38105;52.968;5.974;2023-09-30T08:06:07;26.30;99.90
52107;DHT22;38105;52.968;5.974;2023-09-30T08:08:33;26.60;99.90
52107;DHT22;38105;52.968;5.974;2023-09-30T08:10:59;26.90;99.90
52107;DHT22;38105;52.968;5.974;2023-09-30T08:13:27;27.30;99.90
52107;DHT22;38105;52.968;5.974;2023-09-30T08:15:54;27.60;99.90
52107;DHT22;38105;52.968;5.974;2023-09-30T08:18:21;27.80;99.90
52107;DHT22;38105;52.968;5.974;2023-09-30T08:20:47;27.80;99.90
52107;DHT22;38105;52.968;5.974;2023-09-30T08:23:12;28.00;99.90
52107;DHT22;38105;52.968;5.974;2023-09-30T08:25:38;28.10;99.90
52107;DHT22;38105;52.968;5.974;2023-09-30T08:28:04;28.10;99.90
52107;DHT22;38105;52.968;5.974;2023-09-30T08:30:29;27.70;99.90
52107;DHT22;38105;52.968;5.974;2023-09-30T08:32:56;27.00;99.90
52107;DHT22;38105;52.968;5.974;2023-09-30T08:35:21;26.30;99.90
52107;DHT22;38105;52.968;5.974;2023-09-30T08:37:47;25.40;99.90
52107;DHT22;38105;52.968;5.974;2023-09-30T08:40:12;24.60;99.90
52107;DHT22;38105;52.968;5.974;2023-09-30T08:42:38;24.00;99.90
52107;DHT22;38105;52.968;5.974;2023-09-30T08:45:10;23.30;99.90
52107;DHT22;38105;52.968;5.974;2023-09-30T08:47:40;22.70;99.90
52107;DHT22;38105;52.968;5.974;2023-09-30T08:50:06;21.70;99.90
52107;DHT22;38105;52.968;5.974;2023-09-30T08:52:34;21.20;99.90
52107;DHT22;38105;52.968;5.974;2023-09-30T08:55:00;20.80;99.90
52107;DHT22;38105;52.968;5.974;2023-09-30T08:57:26;20.30;99.90
52107;DHT22;38105;52.968;5.974;2023-09-30T08:59:53;20.10;99.90
52107;DHT22;38105;52.968;5.974;2023-09-30T09:02:21;19.90;99.90
52107;DHT22;38105;52.968;5.974;2023-09-30T09:04:47;20.00;99.90
52107;DHT22;38105;52.968;5.974;2023-09-30T09:07:12;20.30;99.90
52107;DHT22;38105;52.968;5.974;2023-09-30T09:09:38;21.00;99.90
52107;DHT22;38105;52.968;5.974;2023-09-30T09:12:04;22.70;99.90
52107;DHT22;38105;52.968;5.974;2023-09-30T09:14:36;24.40;99.90
52107;DHT22;38105;52.968;5.974;2023-09-30T09:17:06;25.00;99.90
52107;DHT22;38105;52.968;5.974;2023-09-30T09:19:33;25.80;99.90
52107;DHT22;38105;52.968;5.974;2023-09-30T09:21:59;26.30;99.90
52107;DHT22;38105;52.968;5.974;2023-09-30T09:24:28;26.90;99.90
52107;DHT22;38105;52.968;5.974;2023-09-30T09:27:03;27.20;99.90
52107;DHT22;38105;52.968;5.974;2023-09-30T09:29:29;27.40;99.90
52107;DHT22;38105;52.968;5.974;2023-09-30T09:31:54;27.60;99.90
52107;DHT22;38105;52.968;5.974;2023-09-30T09:34:31;27.50;99.90
52107;DHT22;38105;52.968;5.974;2023-09-30T09:36:57;27.50;99.90
52107;DHT22;38105;52.968;5.974;2023-09-30T09:39:29;27.40;99.90
52107;DHT22;38105;52.968;5.974;2023-09-30T09:41:56;27.00;99.90
52107;DHT22;38105;52.968;5.974;2023-09-30T09:44:23;26.20;99.90
52107;DHT22;38105;52.968;5.974;2023-09-30T09:46:50;25.70;99.90
52107;DHT22;38105;52.968;5.974;2023-09-30T09:49:16;25.40;99.90
52107;DHT22;38105;52.968;5.974;2023-09-30T09:51:43;24.80;99.90
52107;DHT22;38105;52.968;5.974;2023-09-30T09:54:09;24.80;99.90
52107;DHT22;38105;52.968;5.974;2023-09-30T09:56:36;24.80;99.90
52107;DHT22;38105;52.968;5.974;2023-09-30T09:59:11;24.80;99.90
52107;DHT22;38105;52.968;5.974;2023-09-30T10:01:37;24.80;99.90
52107;DHT22;38105;52.968;5.974;2023-09-30T10:04:05;24.80;99.90
52107;DHT22;38105;52.968;5.974;2023-09-30T10:06:30;25.00;99.90
52107;DHT22;38105;52.968;5.974;2023-09-30T10:09:03;24.90;99.90
52107;DHT22;38105;52.968;5.974;2023-09-30T10:11:30;24.90;99.90
52107;DHT22;38105;52.968;5.974;2023-09-30T10:13:57;25.10;99.90
52107;DHT22;38105;52.968;5.974;2023-09-30T10:19:14;25.10;99.90
52107;DHT22;38105;52.968;5.974;2023-09-30T10:22:19;24.80;99.90
52107;DHT22;38105;52.968;5.974;2023-09-30T10:29:40;24.10;99.90
52107;DHT22;38105;52.968;5.974;2023-09-30T10:32:09;24.30;99.90
52107;DHT22;38105;52.968;5.974;2023-09-30T10:34:35;24.10;99.90
52107;DHT22;38105;52.968;5.974;2023-09-30T10:37:19;24.00;99.90
52107;DHT22;38105;52.968;5.974;2023-09-30T10:39:56;23.80;99.90
52107;DHT22;38105;52.968;5.974;2023-09-30T10:42:44;23.70;99.90
52107;DHT22;38105;52.968;5.974;2023-09-30T10:47:58;23.10;99.90
52107;DHT22;38105;52.968;5.974;2023-09-30T10:50:50;22.70;99.90
52107;DHT22;38105;52.968;5.974;2023-09-30T10:53:17;22.60;99.90
52107;DHT22;38105;52.968;5.974;2023-09-30T10:55:44;22.50;99.90
52107;DHT22;38105;52.968;5.974;2023-09-30T10:58:10;22.40;99.90
52107;DHT22;38105;52.968;5.974;2023-09-30T11:00:36;22.30;99.90
52107;DHT22;38105;52.968;5.974;2023-09-30T11:03:04;22.40;99.90
52107;DHT22;38105;52.968;5.974;2023-09-30T11:05:31;22.40;99.90
52107;DHT22;38105;52.968;5.974;2023-09-30T11:08:02;22.50;99.90
52107;DHT22;38105;52.968;5.974;2023-09-30T11:10:32;22.70;99.90
52107;DHT22;38105;52.968;5.974;2023-09-30T11:12:58;22.80;99.90
52107;DHT22;38105;52.968;5.974;2023-09-30T11:15:24;22.80;99.90
52107;DHT22;38105;52.968;5.974;2023-09-30T11:17:51;22.90;99.90
52107;DHT22;38105;52.968;5.974;2023-09-30T11:20:17;22.90;99.90
52107;DHT22;38105;52.968;5.974;2023-09-30T11:22:44;22.90;99.90
52107;DHT22;38105;52.968;5.974;2023-09-30T11:25:17;23.00;99.90
52107;DHT22;38105;52.968;5.974;2023-09-30T11:27:43;23.10;99.90
52107;DHT22;38105;52.968;5.974;2023-09-30T11:30:09;23.10;99.90
52107;DHT22;38105;52.968;5.974;2023-09-30T11:32:35;23.10;99.90
52107;DHT22;38105;52.968;5.974;2023-09-30T11:35:00;23.10;99.90
52107;DHT22;38105;52.968;5.974;2023-09-30T11:37:32;23.00;99.90
52107;DHT22;38105;52.968;5.974;2023-09-30T11:40:08;23.00;99.90
52107;DHT22;38105;52.968;5.974;2023-09-30T11:42:34;22.80;99.90
52107;DHT22;38105;52.968;5.974;2023-09-30T11:44:59;23.10;99.90
52107;DHT22;38105;52.968;5.974;2023-09-30T11:47:28;22.90;99.90
52107;DHT22;38105;52.968;5.974;2023-09-30T11:49:56;23.00;99.90
52107;DHT22;38105;52.968;5.974;2023-09-30T11:52:26;22.90;99.90
52107;DHT22;38105;52.968;5.974;2023-09-30T11:54:51;22.90;99.90
52107;DHT22;38105;52.968;5.974;2023-09-30T11:57:17;22.80;99.90
52107;DHT22;38105;52.968;5.974;2023-09-30T11:59:44;22.70;99.90
52107;DHT22;38105;52.968;5.974;2023-09-30T12:02:10;22.70;99.90
52107;DHT22;38105;52.968;5.974;2023-09-30T12:04:36;22.70;99.90
52107;DHT22;38105;52.968;5.974;2023-09-30T12:07:02;22.70;99.90
52107;DHT22;38105;52.968;5.974;2023-09-30T12:09:28;22.50;99.90
52107;DHT22;38105;52.968;5.974;2023-09-30T12:11:55;22.40;99.90
52107;DHT22;38105;52.968;5.974;2023-09-30T12:14:23;22.30;99.90
52107;DHT22;38105;52.968;5.974;2023-09-30T12:16:49;22.20;99.90
52107;DHT22;38105;52.968;5.974;2023-09-30T12:19:19;22.30;99.90
52107;DHT22;38105;52.968;5.974;2023-09-30T12:21:44;22.20;99.90
52107;DHT22;38105;52.968;5.974;2023-09-30T12:24:13;22.20;99.90
52107;DHT22;38105;52.968;5.974;2023-09-30T12:26:42;22.00;99.90
52107;DHT22;38105;52.968;5.974;2023-09-30T12:29:08;21.80;99.90
52107;DHT22;38105;52.968;5.974;2023-09-30T12:31:35;21.70;99.90
52107;DHT22;38105;52.968;5.974;2023-09-30T12:34:00;21.50;99.90
52107;DHT22;38105;52.968;5.974;2023-09-30T12:36:26;21.40;99.90
52107;DHT22;38105;52.968;5.974;2023-09-30T12:38:51;21.40;99.90
52107;DHT22;38105;52.968;5.974;2023-09-30T12:41:17;21.50;99.90
52107;DHT22;38105;52.968;5.974;2023-09-30T12:43:44;21.60;99.90
52107;DHT22;38105;52.968;5.974;2023-09-30T12:46:10;21.60;99.90
52107;DHT22;38105;52.968;5.974;2023-09-30T12:48:39;21.70;99.90
52107;DHT22;38105;52.968;5.974;2023-09-30T12:51:04;21.80;99.90
52107;DHT22;38105;52.968;5.974;2023-09-30T12:53:32;21.60;99.90
52107;DHT22;38105;52.968;5.974;2023-09-30T12:55:58;21.50;99.90
52107;DHT22;38105;52.968;5.974;2023-09-30T12:58:25;21.40;99.90
52107;DHT22;38105;52.968;5.974;2023-09-30T13:00:56;21.20;99.90
52107;DHT22;38105;52.968;5.974;2023-09-30T13:03:22;21.10;99.90
52107;DHT22;38105;52.968;5.974;2023-09-30T13:05:48;21.20;99.90
52107;DHT22;38105;52.968;5.974;2023-09-30T13:08:14;21.20;99.90
52107;DHT22;38105;52.968;5.974;2023-09-30T13:10:40;21.10;99.90
52107;DHT22;38105;52.968;5.974;2023-09-30T13:13:05;21.20;99.90
52107;DHT22;38105;52.968;5.974;2023-09-30T13:15:32;21.10;99.90
52107;DHT22;38105;52.968;5.974;2023-09-30T13:17:58;21.00;99.90
52107;DHT22;38105;52.968;5.974;2023-09-30T13:20:24;21.00;99.90
52107;DHT22;38105;52.968;5.974;2023-09-30T13:22:50;21.00;99.90
52107;DHT22;38105;52.968;5.974;2023-09-30T13:25:16;21.00;99.90
52107;DHT22;38105;52.968;5.974;2023-09-30T13:27:42;21.00;99.90
52107;DHT22;38105;52.968;5.974;2023-09-30T13:30:08;20.90;99.90
52107;DHT22;38105;52.968;5.974;2023-09-30T13:32:34;21.00;99.90
52107;DHT22;38105;52.968;5.974;2023-09-30T13:35:05;21.10;99.90
52107;DHT22;38105;52.968;5.974;2023-09-30T13:37:34;21.20;99.90
52107;DHT22;38105;52.968;5.974;2023-09-30T13:40:00;21.20;99.90
52107;DHT22;38105;52.968;5.974;2023-09-30T13:42:27;21.10;99.90
52107;DHT22;38105;52.968;5.974;2023-09-30T13:44:52;21.10;99.90
52107;DHT22;38105;52.968;5.974;2023-09-30T13:47:18;21.20;99.90
52107;DHT22;38105;52.968;5.974;2023-09-30T13:49:43;21.10;99.90
52107;DHT22;38105;52.968;5.974;2023-09-30T13:52:09;21.00;99.90
52107;DHT22;38105;52.968;5.974;2023-09-30T13:54:34;21.00;99.90
52107;DHT22;38105;52.968;5.974;2023-09-30T13:57:00;20.90;99.90
52107;DHT22;38105;52.968;5.974;2023-09-30T13:59:26;20.90;99.90
52107;DHT22;38105;52.968;5.974;2023-09-30T14:01:53;20.90;99.90
52107;DHT22;38105;52.968;5.974;2023-09-30T14:04:18;20.80;99.90
52107;DHT22;38105;52.968;5.974;2023-09-30T14:06:44;20.80;99.90
52107;DHT22;38105;52.968;5.974;2023-09-30T14:09:09;20.80;99.90
52107;DHT22;38105;52.968;5.974;2023-09-30T14:11:40;20.90;99.90
52107;DHT22;38105;52.968;5.974;2023-09-30T14:14:06;21.00;99.90
52107;DHT22;38105;52.968;5.974;2023-09-30T14:16:35;21.10;99.90
52107;DHT22;38105;52.968;5.974;2023-09-30T14:19:01;20.90;99.90
52107;DHT22;38105;52.968;5.974;2023-09-30T14:21:26;20.70;99.90
52107;DHT22;38105;52.968;5.974;2023-09-30T14:23:53;20.70;99.90
52107;DHT22;38105;52.968;5.974;2023-09-30T14:26:19;20.60;99.90
52107;DHT22;38105;52.968;5.974;2023-09-30T14:28:44;20.50;99.90
52107;DHT22;38105;52.968;5.974;2023-09-30T14:31:10;20.50;99.90
52107;DHT22;38105;52.968;5.974;2023-09-30T14:33:36;20.30;99.90
52107;DHT22;38105;52.968;5.974;2023-09-30T14:36:04;20.30;99.90
52107;DHT22;38105;52.968;5.974;2023-09-30T14:38:33;20.20;99.90
52107;DHT22;38105;52.968;5.974;2023-09-30T14:41:05;20.00;99.90
52107;DHT22;38105;52.968;5.974;2023-09-30T14:43:31;19.90;99.90
52107;DHT22;38105;52.968;5.974;2023-09-30T14:45:56;19.80;99.90
52107;DHT22;38105;52.968;5.974;2023-09-30T14:48:22;19.70;99.90
52107;DHT22;38105;52.968;5.974;2023-09-30T14:50:50;19.70;99.90
52107;DHT22;38105;52.968;5.974;2023-09-30T14:53:16;19.70;99.90
52107;DHT22;38105;52.968;5.974;2023-09-30T14:55:45;19.70;99.90
52107;DHT22;38105;52.968;5.974;2023-09-30T14:58:11;19.70;99.90
52107;DHT22;38105;52.968;5.974;2023-09-30T15:00:36;19.80;99.90
52107;DHT22;38105;52.968;5.974;2023-09-30T15:03:02;19.90;99.90
52107;DHT22;38105;52.968;5.974;2023-09-30T15:05:28;20.00;99.90
52107;DHT22;38105;52.968;5.974;2023-09-30T15:07:54;20.00;99.90
52107;DHT22;38105;52.968;5.974;2023-09-30T15:10:23;20.00;99.90
52107;DHT22;38105;52.968;5.974;2023-09-30T15:12:48;20.00;99.90
52107;DHT22;38105;52.968;5.974;2023-09-30T15:15:14;20.00;99.90
52107;DHT22;38105;52.968;5.974;2023-09-30T15:17:40;20.00;99.90
52107;DHT22;38105;52.968;5.974;2023-09-30T15:20:05;20.00;99.90
52107;DHT22;38105;52.968;5.974;2023-09-30T15:22:32;20.00;99.90
52107;DHT22;38105;52.968;5.974;2023-09-30T15:24:58;19.90;99.90
52107;DHT22;38105;52.968;5.974;2023-09-30T15:27:23;19.90;99.90
52107;DHT22;38105;52.968;5.974;2023-09-30T15:29:50;19.80;99.90
52107;DHT22;38105;52.968;5.974;2023-09-30T15:32:16;19.90;99.90
52107;DHT22;38105;52.968;5.974;2023-09-30T15:34:45;19.80;99.90
52107;DHT22;38105;52.968;5.974;2023-09-30T15:37:10;19.80;99.90
52107;DHT22;38105;52.968;5.974;2023-09-30T15:39:37;19.70;99.90